Time;durP1;ratioP1;P1;durP2;ratioP2;P2;SDS_P1;SDS_P2;PMS_P1;PMS_P2;Temp;Humidity;BMP_temperature;BMP_pressure;BME280_temperature;BME280_humidity;BME280_pressure;Samples;Min_cycle;Max_cycle;Signal;HPM_P1;HPM_P2
2022/05/08 00:00:05;;;;;;;9.05;3.10;;;;;;;12.59;45.43;100332.81;5114158;28;20094;-37
2022/05/08 00:02:30;;;;;;;9.00;2.80;;;;;;;12.57;45.33;100334.88;5114298;28;20027;-37
2022/05/08 00:04:56;;;;;;;6.15;2.83;;;;;;;12.49;46.49;100329.72;5114622;28;20019;-38
2022/05/08 00:07:23;;;;;;;8.23;3.03;;;;;;;12.61;46.06;100332.63;5113872;28;20565;-38
2022/05/08 00:09:49;;;;;;;6.30;2.92;;;;;;;12.46;45.85;100328.25;5114457;28;20110;-37
2022/05/08 00:12:16;;;;;;;5.50;3.10;;;;;;;12.46;46.58;100333.59;5113362;28;20479;-38
2022/05/08 00:14:43;;;;;;;5.95;3.15;;;;;;;12.59;46.19;100332.81;5113809;28;20015;-37
2022/05/08 00:17:14;;;;;;;6.25;3.40;;;;;;;12.49;45.99;100327.88;5113825;28;20094;-38
2022/05/08 00:19:45;;;;;;;6.13;3.53;;;;;;;12.28;47.07;100326.19;5114003;28;20027;-38
2022/05/08 00:22:11;;;;;;;8.63;3.15;;;;;;;12.30;46.45;100320.63;5113511;28;20697;-37
2022/05/08 00:24:38;;;;;;;4.72;3.08;;;;;;;12.36;46.98;100327.84;5113550;28;20073;-38
2022/05/08 00:27:03;;;;;;;6.40;3.05;;;;;;;12.44;46.25;100329.50;5113901;28;20043;-38
2022/05/08 00:29:29;;;;;;;6.75;3.13;;;;;;;12.22;46.47;100321.66;5113791;28;20439;-38
2022/05/08 00:31:54;;;;;;;9.10;3.10;;;;;;;12.27;47.12;100323.69;5113921;28;20016;-38
2022/05/08 00:34:20;;;;;;;6.97;3.28;;;;;;;11.80;48.22;100325.31;5113822;28;20043;-37
2022/05/08 00:36:45;;;;;;;7.53;3.33;;;;;;;12.05;47.63;100320.31;5113466;28;20475;-38
2022/05/08 00:39:11;;;;;;;7.75;3.38;;;;;;;11.85;47.74;100321.03;5113602;28;20023;-37
2022/05/08 00:41:36;;;;;;;5.25;3.40;;;;;;;11.99;47.64;100318.47;5113542;28;20030;-37
2022/05/08 00:44:03;;;;;;;7.78;3.28;;;;;;;12.22;47.06;100310.97;5113342;28;20106;-38
2022/05/08 00:46:29;;;;;;;7.40;3.38;;;;;;;12.10;47.80;100309.88;5113540;28;20080;-37
2022/05/08 00:48:56;;;;;;;5.90;3.20;;;;;;;12.26;47.66;100312.22;5113774;28;20080;-38
2022/05/08 00:51:23;;;;;;;7.20;3.38;;;;;;;12.02;48.80;100324.22;5113766;28;20441;-38
2022/05/08 00:53:54;;;;;;;5.63;3.30;;;;;;;12.21;47.85;100319.16;5113284;28;20015;-38
2022/05/08 00:56:20;;;;;;;8.23;3.53;;;;;;;12.17;47.90;100313.41;5113243;28;20372;-38
2022/05/08 00:58:48;;;;;;;5.78;3.30;;;;;;;12.18;48.83;100320.38;5113375;28;20394;-38
2022/05/08 01:01:14;;;;;;;8.23;3.40;;;;;;;12.19;48.43;100323.88;5113371;28;20027;-37
2022/05/08 01:03:40;;;;;;;11.07;3.50;;;;;;;12.02;49.59;100318.88;5113200;28;20026;-38
2022/05/08 01:06:11;;;;;;;12.57;3.75;;;;;;;12.02;49.53;100318.06;5112961;28;20051;-38
2022/05/08 01:08:39;;;;;;;5.38;3.40;;;;;;;12.16;48.73;100309.06;5113072;28;20110;-38
2022/05/08 01:11:07;;;;;;;6.28;3.70;;;;;;;12.07;49.47;100311.13;5112777;28;20504;-38
2022/05/08 01:13:32;;;;;;;6.43;3.53;;;;;;;12.09;49.09;100316.25;5112948;28;20027;-38
2022/05/08 01:15:58;;;;;;;4.07;3.30;;;;;;;12.16;49.22;100316.28;5112777;28;20176;-38
2022/05/08 01:18:24;;;;;;;6.57;3.20;;;;;;;12.13;49.70;100304.16;5112845;28;20031;-37
2022/05/08 01:20:51;;;;;;;7.93;3.65;;;;;;;12.14;49.32;100305.78;5112514;28;20023;-37
2022/05/08 01:23:18;;;;;;;7.47;3.95;;;;;;;12.26;49.68;100316.69;5111898;28;20024;-37
2022/05/08 01:25:56;;;;;;;8.15;4.32;;;;;;;12.24;50.16;100318.75;5112568;28;20088;-38
2022/05/08 01:28:23;;;;;;;7.32;3.78;;;;;;;12.25;49.13;100315.88;5112619;28;20019;-38
2022/05/08 01:30:51;;;;;;;10.00;4.35;;;;;;;12.20;49.02;100312.19;5112400;28;20023;-38
2022/05/08 01:33:17;;;;;;;8.02;4.07;;;;;;;12.28;49.00;100320.84;5111890;28;20016;-38
2022/05/08 01:35:44;;;;;;;8.27;3.67;;;;;;;12.23;49.10;100317.13;5112235;28;20110;-38
2022/05/08 01:38:12;;;;;;;6.82;4.30;;;;;;;12.30;49.19;100317.97;5112525;28;20015;-38
2022/05/08 01:40:38;;;;;;;7.82;3.90;;;;;;;12.29;49.79;100310.97;5112407;28;20505;-38
2022/05/08 01:43:04;;;;;;;7.65;4.15;;;;;;;12.37;49.94;100313.44;5111970;28;20042;-37
2022/05/08 01:45:32;;;;;;;7.28;3.97;;;;;;;12.32;49.72;100314.06;5112687;28;20479;-38
2022/05/08 01:50:42;;;;;;;8.52;4.60;;;;;;;12.33;49.44;100312.22;5112444;28;20039;-38
2022/05/08 01:53:08;;;;;;;7.18;4.40;;;;;;;12.35;50.04;100320.84;5112156;28;20024;-38
2022/05/08 01:55:33;;;;;;;9.70;4.70;;;;;;;12.36;49.89;100317.16;5112189;28;20027;-37
2022/05/08 01:57:59;;;;;;;7.32;4.65;;;;;;;12.38;49.85;100315.13;5111860;28;20058;-38
2022/05/08 02:00:26;;;;;;;6.43;3.80;;;;;;;12.36;50.24;100314.50;5112016;28;20034;-37
2022/05/08 02:02:52;;;;;;;10.18;4.60;;;;;;;12.29;51.17;100317.13;5111483;28;20051;-37
2022/05/08 02:05:20;;;;;;;10.43;4.50;;;;;;;12.23;50.86;100319.78;5111332;28;20403;-38
2022/05/08 02:07:47;;;;;;;6.63;4.45;;;;;;;12.25;51.05;100320.41;5110860;28;20363;-38
2022/05/08 02:10:14;;;;;;;7.00;4.38;;;;;;;12.23;51.36;100311.78;5111081;28;20107;-38
2022/05/08 02:12:40;;;;;;;10.10;5.05;;;;;;;12.20;51.66;100322.84;5111126;28;20043;-39
2022/05/08 02:15:08;;;;;;;8.07;4.70;;;;;;;12.16;51.21;100319.75;5111097;28;20131;-38
2022/05/08 02:17:33;;;;;;;7.40;4.47;;;;;;;12.21;51.86;100321.84;5111005;28;20083;-38
2022/05/08 02:19:59;;;;;;;8.13;4.43;;;;;;;12.21;51.19;100317.31;5111517;28;20035;-38
2022/05/08 02:22:25;;;;;;;8.23;4.57;;;;;;;12.26;50.97;100319.38;5111698;28;20027;-38
2022/05/08 02:24:51;;;;;;;8.00;4.57;;;;;;;12.21;51.20;100319.97;5111418;28;20019;-38
2022/05/08 02:27:17;;;;;;;6.63;4.40;;;;;;;12.09;51.52;100301.06;5111313;28;20068;-37
2022/05/08 02:29:42;;;;;;;8.57;4.40;;;;;;;12.11;51.97;100314.22;5111317;28;20420;-38
2022/05/08 02:32:08;;;;;;;7.72;4.38;;;;;;;12.15;52.20;100318.13;5111332;28;20024;-38
2022/05/08 02:34:33;;;;;;;6.43;4.18;;;;;;;12.08;51.73;100317.25;5110933;28;20335;-38
2022/05/08 02:36:59;;;;;;;9.90;4.15;;;;;;;12.05;51.43;100315.00;5111327;28;20034;-38
2022/05/08 02:39:24;;;;;;;11.13;4.68;;;;;;;11.84;53.02;100323.88;5111538;28;20024;-38
2022/05/08 02:41:50;;;;;;;7.70;4.03;;;;;;;11.64;51.59;100297.94;5111463;28;20023;-38
2022/05/08 02:44:16;;;;;;;5.93;4.22;;;;;;;11.60;52.34;100322.53;5111373;28;20031;-37
2022/05/08 02:46:42;;;;;;;7.80;4.30;;;;;;;11.37;51.40;100318.28;5111613;28;20456;-38
2022/05/08 02:49:07;;;;;;;11.68;4.80;;;;;;;11.05;52.51;100319.69;5111366;28;20130;-37
2022/05/08 02:51:32;;;;;;;7.70;4.95;;;;;;;11.30;52.37;100322.75;5111401;28;20039;-37
2022/05/08 02:53:58;;;;;;;8.15;4.35;;;;;;;11.05;52.39;100325.84;5110997;28;20023;-38
2022/05/08 02:59:07;;;;;;;8.77;4.90;;;;;;;10.84;53.18;100325.88;5111104;28;20080;-38
2022/05/08 03:01:32;;;;;;;6.95;4.80;;;;;;;11.00;52.56;100330.91;5111030;28;20043;-37
2022/05/08 03:03:58;;;;;;;9.27;4.97;;;;;;;10.57;54.26;100323.75;5110950;28;20438;-38
2022/05/08 03:06:23;;;;;;;9.52;5.93;;;;;;;10.78;53.36;100326.63;5110905;28;20188;-38
2022/05/08 03:08:51;;;;;;;12.50;6.35;;;;;;;10.87;53.78;100328.13;5111259;28;20048;-38
2022/05/08 03:11:26;;;;;;;14.25;6.72;;;;;;;10.88;54.09;100332.44;5111033;28;20029;-38
2022/05/08 03:13:53;;;;;;;13.40;8.23;;;;;;;11.10;53.45;100333.22;5110638;28;20045;-38
2022/05/08 03:16:19;;;;;;;12.27;7.47;;;;;;;11.14;52.88;100335.34;5110961;28;20023;-38
2022/05/08 03:18:45;;;;;;;16.75;7.30;;;;;;;11.08;52.66;100325.47;5111410;28;20020;-38
2022/05/08 03:21:13;;;;;;;12.60;7.22;;;;;;;11.12;53.21;100333.91;5110763;28;20019;-38
2022/05/08 03:23:39;;;;;;;12.45;7.05;;;;;;;11.06;54.45;100340.81;5110883;28;20028;-38
2022/05/08 03:26:05;;;;;;;11.25;7.10;;;;;;;11.19;53.71;100341.91;5110749;28;20020;-37
2022/05/08 03:28:31;;;;;;;14.25;6.78;;;;;;;11.17;53.67;100341.28;5110294;28;20047;-38
2022/05/08 03:30:59;;;;;;;10.50;7.00;;;;;;;11.01;54.36;100345.88;5110430;28;20054;-38
2022/05/08 03:33:27;;;;;;;10.95;6.78;;;;;;;11.11;54.63;100345.56;5110641;28;20472;-38
2022/05/08 03:35:53;;;;;;;12.45;6.75;;;;;;;11.16;54.48;100348.47;5110753;28;20061;-37
2022/05/08 03:38:18;;;;;;;12.35;6.90;;;;;;;11.18;54.72;100351.75;5110584;28;20057;-38
2022/05/08 03:40:44;;;;;;;14.88;5.95;;;;;;;11.14;54.63;100358.50;5092288;28;20023;-37
2022/05/08 03:43:10;;;;;;;14.98;7.32;;;;;;;11.40;54.03;100354.38;5110365;28;20101;-38
2022/05/08 03:45:35;;;;;;;16.02;6.78;;;;;;;11.41;53.63;100356.03;5110486;28;20099;-38
2022/05/08 03:48:02;;;;;;;15.38;6.85;;;;;;;11.52;53.42;100352.84;5114247;28;20023;-38
2022/05/08 03:50:28;;;;;;;20.65;11.90;;;;;;;11.58;53.55;100351.25;5114236;28;20023;-37
2022/05/08 03:52:54;;;;;;;11.88;7.00;;;;;;;11.92;53.14;100361.13;5114482;28;20467;-38
2022/05/08 03:55:20;;;;;;;10.77;6.80;;;;;;;12.18;52.32;100359.59;5114323;28;20027;-38
2022/05/08 03:57:46;;;;;;;13.15;6.95;;;;;;;12.56;51.56;100354.56;5114353;28;20106;-38
2022/05/08 04:00:13;;;;;;;11.48;7.00;;;;;;;13.02;51.00;100361.88;5114517;28;20456;-37
2022/05/08 04:02:39;;;;;;;14.77;7.32;;;;;;;13.47;49.15;100356.72;5114123;28;20043;-38
2022/05/08 04:05:05;;;;;;;15.40;7.20;;;;;;;13.86;48.22;100352.34;5114680;28;20034;-38
2022/05/08 04:07:31;;;;;;;11.90;6.70;;;;;;;14.14;47.35;100361.09;5113881;28;20139;-38
2022/05/08 04:09:57;;;;;;;11.23;6.38;;;;;;;14.55;47.17;100359.91;5114055;28;20491;-38
2022/05/08 04:12:24;;;;;;;15.07;6.85;;;;;;;14.79;46.58;100361.84;5113834;28;20024;-37
2022/05/08 04:14:49;;;;;;;10.93;6.75;;;;;;;15.07;45.21;100365.97;5114148;28;20088;-37
2022/05/08 04:17:16;;;;;;;15.40;7.43;;;;;;;15.33;44.07;100367.63;5114010;28;20028;-37
2022/05/08 04:19:42;;;;;;;17.00;7.15;;;;;;;15.74;43.27;100370.75;5114235;28;20062;-37
2022/05/08 04:24:52;;;;;;;10.05;6.25;;;;;;;16.43;40.68;100368.75;5114259;28;20069;-38
2022/05/08 04:27:17;;;;;;;11.60;6.70;;;;;;;16.95;40.18;100368.25;5113804;28;20023;-37
2022/05/08 04:29:43;;;;;;;12.65;6.85;;;;;;;17.11;39.54;100362.19;5113889;28;20428;-38
2022/05/08 04:32:08;;;;;;;11.98;6.88;;;;;;;17.17;39.46;100363.13;5114186;28;20110;-38
2022/05/08 04:34:34;;;;;;;9.90;6.45;;;;;;;17.36;39.00;100367.38;5113755;28;20024;-37
2022/05/08 04:36:59;;;;;;;12.13;6.43;;;;;;;17.43;38.92;100363.75;5113367;28;20077;-37
2022/05/08 04:39:25;;;;;;;13.05;7.28;;;;;;;17.79;38.12;100370.75;5112175;28;20023;-38
2022/05/08 04:41:51;;;;;;;14.80;7.78;;;;;;;17.80;37.90;100364.31;5113155;28;20164;-38
2022/05/08 04:44:17;;;;;;;33.28;21.58;;;;;;;17.94;37.98;100365.72;5113016;28;20031;-38
2022/05/08 04:46:43;;;;;;;17.08;9.38;;;;;;;18.10;37.29;100371.41;5112772;28;20030;-38
2022/05/08 04:49:08;;;;;;;10.98;6.80;;;;;;;18.55;36.81;100368.00;5112932;28;20038;-38
2022/05/08 04:51:34;;;;;;;9.40;5.40;;;;;;;18.83;36.13;100367.19;5112753;28;20038;-38
2022/05/08 04:53:59;;;;;;;8.65;5.35;;;;;;;19.13;35.52;100371.47;5112691;28;20023;-38
2022/05/08 04:56:25;;;;;;;10.38;6.20;;;;;;;19.27;35.62;100371.97;5112712;28;20028;-39
2022/05/08 04:58:50;;;;;;;7.47;5.03;;;;;;;19.71;35.02;100370.19;5112898;28;20046;-38
2022/05/08 05:01:16;;;;;;;8.77;4.90;;;;;;;19.86;34.74;100364.22;5112557;28;20028;-38
2022/05/08 05:03:41;;;;;;;10.27;5.50;;;;;;;19.98;33.97;100361.38;5112389;28;20028;-38
2022/05/08 05:06:07;;;;;;;13.63;4.85;;;;;;;20.40;33.54;100368.09;5112318;28;20465;-38
2022/05/08 05:08:33;;;;;;;9.88;4.80;;;;;;;20.14;34.07;100351.56;5112044;28;20051;-38
2022/05/08 05:10:59;;;;;;;15.70;10.60;;;;;;;20.81;32.57;100365.81;5112731;28;20123;-38
2022/05/08 05:13:25;;;;;;;9.30;4.78;;;;;;;20.75;32.74;100377.69;5112395;28;20028;-38
2022/05/08 05:15:51;;;;;;;16.58;11.05;;;;;;;20.91;32.53;100379.47;5112288;28;20494;-38
2022/05/08 05:18:16;;;;;;;8.90;4.53;;;;;;;21.33;31.78;100375.22;5111850;28;20026;-38
2022/05/08 05:20:42;;;;;;;8.32;4.20;;;;;;;21.78;31.73;100373.88;5111961;28;20027;-38
2022/05/08 05:23:08;;;;;;;12.07;4.25;;;;;;;22.28;30.86;100377.16;5111628;28;20077;-38
2022/05/08 05:25:33;;;;;;;6.25;4.30;;;;;;;22.90;30.77;100373.44;5111737;28;20047;-38
2022/05/08 05:27:59;;;;;;;4.97;4.03;;;;;;;23.17;30.23;100373.25;5111913;28;20130;-38
2022/05/08 05:30:24;;;;;;;8.57;4.80;;;;;;;23.16;30.16;100371.59;5111977;28;20084;-37
2022/05/08 05:32:49;;;;;;;7.07;4.20;;;;;;;23.39;29.67;100370.22;5112272;28;20344;-37
2022/05/08 05:35:15;;;;;;;7.38;4.68;;;;;;;23.33;30.16;100370.50;5112413;28;20509;-37
2022/05/08 05:37:40;;;;;;;7.00;4.60;;;;;;;22.90;30.53;100373.44;5112363;28;20034;-37
2022/05/08 05:40:07;;;;;;;8.32;4.50;;;;;;;23.03;30.82;100367.53;5112264;28;20088;-37
2022/05/08 05:42:33;;;;;;;8.30;4.70;;;;;;;23.46;30.48;100372.66;5112154;28;20404;-37
2022/05/08 05:44:58;;;;;;;6.28;4.38;;;;;;;24.14;29.64;100374.94;5112120;28;20074;-37
2022/05/08 05:50:09;;;;;;;6.85;4.20;;;;;;;24.61;28.51;100369.28;5112025;28;20041;-37
2022/05/08 05:52:35;;;;;;;8.80;4.47;;;;;;;24.46;28.39;100368.25;5111531;28;20101;-37
2022/05/08 05:55:04;;;;;;;6.78;4.20;;;;;;;24.56;28.67;100375.56;5111518;28;20032;-37
2022/05/08 05:57:30;;;;;;;8.23;4.10;;;;;;;25.15;28.49;100371.03;5093311;28;20034;-36
2022/05/08 05:59:55;;;;;;;5.78;3.83;;;;;;;25.52;27.37;100370.44;5111665;28;20483;-37
2022/05/08 06:02:21;;;;;;;9.05;3.92;;;;;;;25.21;27.37;100361.75;5111337;28;20081;-37
2022/05/08 06:04:46;;;;;;;10.23;5.88;;;;;;;25.26;30.84;100372.59;5111428;28;20042;-37
2022/05/08 06:07:12;;;;;;;10.93;3.70;;;;;;;25.00;28.57;100368.44;5111774;28;20047;-37
2022/05/08 06:09:37;;;;;;;6.28;3.88;;;;;;;24.95;28.69;100367.41;5110988;28;20019;-37
2022/05/08 06:12:03;;;;;;;6.25;3.80;;;;;;;24.76;29.11;100364.53;5111466;28;20031;-37
2022/05/08 06:14:29;;;;;;;9.82;5.35;;;;;;;24.06;32.71;100366.53;5111663;28;20024;-37
2022/05/08 06:16:55;;;;;;;6.57;4.80;;;;;;;24.51;32.11;100370.97;5111752;28;20036;-38
2022/05/08 06:19:20;;;;;;;7.82;4.18;;;;;;;24.58;31.36;100368.75;5111593;28;20118;-37
2022/05/08 06:21:47;;;;;;;6.70;4.00;;;;;;;24.46;31.23;100362.78;5111685;28;20162;-37
2022/05/08 06:24:12;;;;;;;5.75;3.92;;;;;;;23.50;31.88;100367.50;5111194;28;20027;-37
2022/05/08 06:26:38;;;;;;;7.70;4.13;;;;;;;23.90;31.37;100363.88;5111358;28;20102;-38
2022/05/08 06:29:04;;;;;;;5.88;3.92;;;;;;;24.63;30.23;100375.25;5111241;28;20031;-37
2022/05/08 06:31:30;;;;;;;8.45;3.90;;;;;;;24.56;30.10;100373.66;5111420;28;20027;-37
2022/05/08 06:33:55;;;;;;;6.18;3.80;;;;;;;24.36;30.22;100371.03;5111131;28;20023;-37
2022/05/08 06:36:21;;;;;;;6.43;4.07;;;;;;;23.91;30.79;100376.41;5111336;28;20100;-37
2022/05/08 06:38:46;;;;;;;6.63;4.30;;;;;;;24.46;30.94;100373.69;5111058;28;20030;-38
2022/05/08 06:41:12;;;;;;;7.75;4.30;;;;;;;24.86;29.54;100360.94;5111128;28;20062;-38
2022/05/08 06:43:40;;;;;;;7.57;4.47;;;;;;;24.85;29.19;100366.69;5092978;28;20019;-37
2022/05/08 06:46:06;;;;;;;6.72;4.20;;;;;;;24.55;30.03;100365.78;5111781;28;20020;-37
2022/05/08 06:48:32;;;;;;;8.23;4.13;;;;;;;25.12;29.23;100366.19;5111021;28;20062;-37
2022/05/08 06:50:58;;;;;;;11.55;5.05;;;;;;;23.41;31.32;100359.88;5111277;28;20024;-38
2022/05/08 06:53:23;;;;;;;10.65;4.50;;;;;;;24.11;30.83;100363.81;5110611;28;20182;-37
2022/05/08 06:55:49;;;;;;;8.13;4.30;;;;;;;24.52;29.71;100356.28;5103640;28;20478;-38
2022/05/08 06:58:14;;;;;;;11.18;4.45;;;;;;;24.79;28.94;100355.00;5091375;28;20431;-37
2022/05/08 07:03:24;;;;;;;8.50;4.53;;;;;;;24.85;29.19;100353.88;5090616;28;20043;-37
2022/05/08 07:05:50;;;;;;;6.30;4.30;;;;;;;25.31;28.26;100344.53;5072197;28;20036;-37
2022/05/08 07:08:15;;;;;;;8.45;4.45;;;;;;;25.36;28.07;100345.28;5089999;28;20028;-37
2022/05/08 07:10:42;;;;;;;12.68;4.28;;;;;;;25.19;28.78;100347.59;5094941;28;20027;-39
2022/05/08 07:13:07;;;;;;;7.10;4.50;;;;;;;26.03;28.79;100341.84;5109824;28;20425;-37
2022/05/08 07:15:33;;;;;;;6.80;4.20;;;;;;;25.63;28.69;100340.38;5110593;28;20087;-37
2022/05/08 07:17:58;;;;;;;5.60;4.30;;;;;;;25.47;27.96;100345.97;5111166;28;20027;-37
2022/05/08 07:20:24;;;;;;;5.47;3.63;;;;;;;25.18;27.99;100345.97;5110973;28;20069;-37
2022/05/08 07:22:49;;;;;;;8.43;4.22;;;;;;;25.67;28.00;100325.06;5093885;28;20030;-37
2022/05/08 07:25:15;;;;;;;6.13;4.00;;;;;;;26.21;27.28;100340.22;5094650;28;20028;-37
2022/05/08 07:27:42;;;;;;;6.50;3.90;;;;;;;25.54;27.83;100345.66;5094720;28;20040;-37
2022/05/08 07:30:08;;;;;;;7.03;4.10;;;;;;;25.27;27.96;100338.03;5097020;28;20032;-38
2022/05/08 07:32:35;;;;;;;6.18;4.07;;;;;;;25.13;27.84;100344.13;5093992;28;20032;-37
2022/05/08 07:37:44;;;;;;;5.70;3.78;;;;;;;25.01;28.90;100343.66;5095126;28;20035;-37
2022/05/08 07:40:11;;;;;;;7.30;3.97;;;;;;;25.93;27.55;100339.22;5114418;28;20024;-37
2022/05/08 07:42:37;;;;;;;4.80;3.67;;;;;;;26.37;27.43;100329.94;5114609;28;20028;-37
2022/05/08 07:45:06;;;;;;;6.78;4.00;;;;;;;26.09;27.00;100339.84;5114967;28;20081;-37
2022/05/08 07:47:32;;;;;;;;;;;;;;;26.54;26.29;100334.88;5115001;28;20124;-37
2022/05/08 07:49:57;;;;;;;8.63;4.05;;;;;;;25.10;27.56;100324.81;5114221;28;20068;-37
2022/05/08 07:52:24;;;;;;;7.20;4.05;;;;;;;25.36;27.28;100323.50;5114172;28;20092;-37
2022/05/08 07:54:49;;;;;;;8.18;4.00;;;;;;;25.29;26.57;100324.94;5108245;28;20115;-37
2022/05/08 07:57:15;;;;;;;5.70;3.45;;;;;;;25.27;26.71;100322.50;5093526;28;20107;-37
2022/05/08 07:59:41;;;;;;;6.60;4.03;;;;;;;25.86;26.13;100325.13;5093492;28;20048;-37
2022/05/08 08:02:07;;;;;;;6.13;3.90;;;;;;;25.01;26.90;100321.88;5102914;28;20517;-38
2022/05/08 08:04:34;;;;;;;6.70;3.75;;;;;;;23.64;28.52;100321.56;5113599;28;20032;-37
2022/05/08 08:07:00;;;;;;;6.95;3.72;;;;;;;23.34;28.85;100323.25;5112062;28;20051;-38
2022/05/08 08:09:26;;;;;;;26.50;18.63;;;;;;;24.30;28.55;100329.44;5112149;28;20364;-37
2022/05/08 08:11:53;;;;;;;12.15;4.75;;;;;;;24.26;28.67;100335.75;5111989;28;20069;-37
2022/05/08 08:14:19;;;;;;;7.07;4.10;;;;;;;25.33;27.70;100317.81;5111817;28;20075;-37
2022/05/08 08:16:45;;;;;;;7.95;3.55;;;;;;;26.13;26.96;100322.59;5111993;28;20052;-38
2022/05/08 08:19:10;;;;;;;6.13;4.00;;;;;;;25.81;26.93;100326.00;5112015;28;20025;-37
2022/05/08 08:21:36;;;;;;;6.85;3.65;;;;;;;24.81;28.39;100327.50;5112802;28;20356;-38
2022/05/08 08:24:01;;;;;;;7.30;4.10;;;;;;;24.83;28.26;100328.84;5113246;28;20422;-38
2022/05/08 08:26:26;;;;;;;7.65;4.90;;;;;;;25.10;28.52;100328.34;5113365;28;20483;-37
2022/05/08 08:28:52;;;;;;;6.05;3.60;;;;;;;25.20;28.13;100321.19;5113095;28;20134;-37
2022/05/08 08:31:17;;;;;;;6.90;4.00;;;;;;;23.77;29.53;100326.41;5112882;28;20031;-37
2022/05/08 08:33:44;;;;;;;4.82;3.50;;;;;;;24.31;29.44;100311.22;5112137;28;20038;-38
2022/05/08 08:36:10;;;;;;;5.78;3.63;;;;;;;24.20;28.71;100326.78;5112777;28;20107;-38
2022/05/08 08:38:37;;;;;;;5.97;3.70;;;;;;;24.77;27.71;100321.84;5112905;28;20031;-37
2022/05/08 08:41:04;;;;;;;7.03;3.33;;;;;;;24.11;28.72;100314.88;5112884;28;20051;-38
2022/05/08 08:49:01;;;;;;;5.70;3.70;;;;;;;24.15;29.06;100313.22;5113664;28;20111;-38
2022/05/08 08:51:27;;;;;;;5.85;3.60;;;;;;;25.59;28.20;100309.34;5113049;28;20039;-37
2022/05/08 08:53:54;;;;;;;8.27;3.42;;;;;;;25.83;26.86;100307.41;5112676;28;20047;-37
2022/05/08 08:56:20;;;;;;;6.57;3.33;;;;;;;24.88;27.58;100304.28;5112676;28;20026;-37
2022/05/08 08:58:45;;;;;;;5.22;3.20;;;;;;;25.07;27.97;100293.50;5112888;28;20102;-37
2022/05/08 09:01:14;;;;;;;4.65;3.30;;;;;;;24.21;27.79;100295.78;5112560;28;20027;-37
2022/05/08 09:03:39;;;;;;;7.00;3.70;;;;;;;23.18;29.24;100296.13;5112628;28;20479;-37
2022/05/08 09:06:08;;;;;;;5.38;3.80;;;;;;;22.89;30.06;100295.88;5112570;28;20051;-37
2022/05/08 09:08:35;;;;;;;6.20;3.80;;;;;;;23.08;30.07;100285.28;5112737;28;20019;-37
2022/05/08 09:11:02;;;;;;;9.60;3.50;;;;;;;22.91;30.60;100292.88;5112446;28;20057;-38
2022/05/08 09:13:31;;;;;;;5.88;3.58;;;;;;;23.75;30.14;100293.25;5112509;28;20377;-38
2022/05/08 09:16:04;;;;;;;8.63;3.50;;;;;;;23.83;29.47;100290.00;5112460;28;20020;-38
2022/05/08 09:18:42;;;;;;;5.85;3.67;;;;;;;22.62;31.16;100285.28;5112187;28;20119;-37
2022/05/08 09:24:09;;;;;;;7.35;3.42;;;;;;;23.34;30.78;100279.81;5112312;28;20039;-38
2022/05/08 09:26:36;;;;;;;6.18;3.40;;;;;;;23.73;31.08;100279.94;5112379;28;20439;-38
2022/05/08 09:29:03;;;;;;;6.70;3.47;;;;;;;23.90;30.59;100284.28;5112624;28;20122;-37
2022/05/08 09:31:39;;;;;;;7.30;3.55;;;;;;;23.29;30.90;100280.66;5112101;28;20073;-37
2022/05/08 09:34:05;;;;;;;8.20;3.78;;;;;;;23.90;30.19;100281.56;5111228;28;20455;-37
2022/05/08 09:36:30;;;;;;;7.88;5.13;;;;;;;22.67;32.07;100270.91;5112117;28;20049;-37
2022/05/08 09:39:00;;;;;;;10.05;7.63;;;;;;;23.76;30.79;100278.56;5112129;28;20020;-38
2022/05/08 09:41:31;;;;;;;6.72;3.40;;;;;;;23.60;30.37;100277.81;5111944;28;20376;-37
2022/05/08 09:44:18;;;;;;;6.05;3.15;;;;;;;22.93;30.98;100271.72;5111073;28;20479;-37
2022/05/08 09:46:45;;;;;;;6.63;3.55;;;;;;;22.99;31.10;100262.47;5111985;28;20484;-38
2022/05/08 09:49:24;;;;;;;9.70;3.70;;;;;;;23.33;30.80;100261.91;5111966;28;20026;-38
2022/05/08 09:51:51;;;;;;;4.28;2.90;;;;;;;23.91;29.94;100264.13;5111491;28;20023;-37
2022/05/08 09:54:18;;;;;;;4.97;3.08;;;;;;;23.34;30.91;100267.06;5111365;28;20502;-36
2022/05/08 09:56:47;;;;;;;6.05;3.70;;;;;;;23.42;31.12;100252.91;5111385;28;20050;-37
2022/05/08 09:59:13;;;;;;;4.88;3.10;;;;;;;23.62;31.76;100248.47;5111405;28;20034;-38
2022/05/08 10:01:40;;;;;;;7.28;3.60;;;;;;;24.10;30.02;100251.53;5111304;28;20495;-37
2022/05/08 10:04:06;;;;;;;6.30;3.40;;;;;;;23.57;30.44;100257.47;5111599;28;20060;-38
2022/05/08 10:06:34;;;;;;;8.80;3.60;;;;;;;23.56;30.79;100261.28;5111030;28;20048;-38
2022/05/08 10:14:30;;;;;;;5.95;3.42;;;;;;;23.51;31.15;100234.13;5111517;28;20030;-37
2022/05/08 10:17:02;;;;;;;4.97;3.40;;;;;;;22.64;32.34;100226.97;5110948;28;20027;-38
2022/05/08 10:19:28;;;;;;;5.95;3.50;;;;;;;21.96;33.08;100223.63;5110987;28;20352;-37
2022/05/08 10:21:56;;;;;;;5.68;3.17;;;;;;;22.80;33.55;100221.53;5110925;28;20034;-38
2022/05/08 10:24:48;;;;;;;5.70;3.50;;;;;;;23.36;31.23;100226.88;5110957;28;20032;-38
2022/05/08 10:27:32;;;;;;;6.05;3.50;;;;;;;22.84;31.80;100223.41;5111031;28;20042;-38
2022/05/08 10:29:57;;;;;;;7.20;3.53;;;;;;;22.59;32.97;100210.69;5111318;28;20020;-38
2022/05/08 10:32:32;;;;;;;9.73;3.47;;;;;;;22.77;32.55;100212.03;5110948;28;20163;-38
2022/05/08 10:35:17;;;;;;;12.93;9.65;;;;;;;22.46;33.49;100211.22;5110900;28;20027;-37
2022/05/08 10:37:47;;;;;;;7.35;3.58;;;;;;;22.49;32.88;100208.00;5110913;28;20023;-38
2022/05/08 10:40:18;;;;;;;;;;;;;;;23.12;32.08;100206.84;5111421;28;20114;-37
2022/05/08 10:42:44;;;;;;;4.80;3.10;;;;;;;22.50;32.61;100216.94;5110874;28;19955;-37
2022/05/08 10:45:28;;;;;;;6.15;3.50;;;;;;;22.30;33.06;100217.75;5111151;28;20055;-37
2022/05/08 10:47:54;;;;;;;6.10;4.03;;;;;;;22.88;32.23;100201.97;5092500;28;20556;-37
2022/05/08 10:50:19;;;;;;;6.18;3.80;;;;;;;22.40;32.87;100210.41;5110631;28;20024;-37
2022/05/08 10:52:47;;;;;;;9.05;3.35;;;;;;;22.31;33.17;100195.78;5110582;28;20080;-37
2022/05/08 10:55:17;;;;;;;8.00;4.07;;;;;;;21.80;34.17;100193.78;5110258;28;20445;-38
2022/05/08 10:57:46;;;;;;;8.18;3.78;;;;;;;21.28;34.56;100205.47;5110730;28;20046;-38
2022/05/08 11:00:17;;;;;;;6.00;3.40;;;;;;;22.04;33.48;100194.09;5110587;28;20071;-38
2022/05/08 11:02:47;;;;;;;5.53;3.47;;;;;;;22.96;32.76;100187.03;5110568;28;20038;-38
2022/05/08 11:05:18;;;;;;;5.50;3.40;;;;;;;23.56;31.64;100187.13;5110753;28;20019;-37
2022/05/08 11:07:51;;;;;;;6.50;3.60;;;;;;;22.91;32.53;100179.72;5110076;28;20048;-38
2022/05/08 11:10:21;;;;;;;8.32;3.60;;;;;;;22.77;32.52;100168.66;5110639;28;20035;-37
2022/05/08 11:13:11;;;;;;;7.38;3.83;;;;;;;23.74;31.37;100175.63;5110370;28;20028;-37
2022/05/08 11:15:37;;;;;;;6.43;3.67;;;;;;;24.35;30.41;100168.97;5110422;28;20485;-38
2022/05/08 11:18:17;;;;;;;4.60;3.22;;;;;;;24.20;30.78;100169.91;5110561;28;20020;-37
2022/05/08 11:21:02;;;;;;;;;;;;;;;24.16;30.73;100165.31;5111059;28;20107;-38
2022/05/08 11:23:30;;;;;;;47.60;31.08;;;;;;;23.99;31.02;100163.00;5110542;28;19919;-38
2022/05/08 11:26:09;;;;;;;5.10;3.70;;;;;;;23.60;31.97;100152.88;5110466;28;20117;-38
2022/05/08 11:28:36;;;;;;;5.70;3.22;;;;;;;23.32;32.62;100166.06;5110567;28;20026;-37
2022/05/08 11:31:16;;;;;;;6.50;3.47;;;;;;;22.77;33.53;100165.09;5110666;28;20303;-37
2022/05/08 11:36:34;;;;;;;7.15;3.10;;;;;;;23.51;32.38;100149.94;5110597;28;20035;-38
2022/05/08 11:39:02;;;;;;;7.07;3.83;;;;;;;23.61;33.32;100147.19;5110786;28;20027;-38
2022/05/08 11:41:33;;;;;;;4.80;3.40;;;;;;;23.44;33.27;100149.44;5110601;28;20422;-38
2022/05/08 11:44:03;;;;;;;4.22;3.17;;;;;;;22.93;34.25;100146.91;5110364;28;20020;-37
2022/05/08 11:46:33;;;;;;;7.20;3.60;;;;;;;23.55;33.19;100140.16;5110130;28;20015;-37
2022/05/08 11:48:58;;;;;;;5.72;3.70;;;;;;;23.03;34.05;100141.47;5110427;28;20031;-37
2022/05/08 11:51:24;;;;;;;7.53;3.10;;;;;;;22.98;33.76;100127.88;5110300;28;20028;-38
2022/05/08 11:53:51;;;;;;;8.35;3.50;;;;;;;22.75;34.12;100140.16;5109494;28;20494;-37
2022/05/08 11:56:19;;;;;;;6.88;3.67;;;;;;;23.53;32.98;100152.38;5110350;28;20012;-38